sensor_id;sensor_type;location;lat;lon;timestamp;P1;durP1;ratioP1;P2;durP2;ratioP2
24425;SDS011;12611;44.446;26.000;2023-03-04T00:00:08;56.50;;;24.27;;
24425;SDS011;12611;44.446;26.000;2023-03-04T00:02:37;52.07;;;23.47;;
24425;SDS011;12611;44.446;26.000;2023-03-04T00:05:06;46.37;;;23.53;;
24425;SDS011;12611;44.446;26.000;2023-03-04T00:07:35;50.67;;;22.93;;
24425;SDS011;12611;44.446;26.000;2023-03-04T00:10:04;49.83;;;22.97;;
24425;SDS011;12611;44.446;26.000;2023-03-04T00:12:33;50.27;;;23.53;;
24425;SDS011;12611;44.446;26.000;2023-03-04T00:15:05;45.63;;;23.33;;
24425;SDS011;12611;44.446;26.000;2023-03-04T00:17:34;46.37;;;23.50;;
24425;SDS011;12611;44.446;26.000;2023-03-04T00:20:03;46.70;;;23.20;;
24425;SDS011;12611;44.446;26.000;2023-03-04T00:22:32;44.93;;;23.03;;
24425;SDS011;12611;44.446;26.000;2023-03-04T00:25:00;53.22;;;27.42;;
24425;SDS011;12611;44.446;26.000;2023-03-04T00:27:29;46.37;;;24.87;;
24425;SDS011;12611;44.446;26.000;2023-03-04T00:29:57;46.73;;;23.43;;
24425;SDS011;12611;44.446;26.000;2023-03-04T00:32:28;46.27;;;23.20;;
24425;SDS011;12611;44.446;26.000;2023-03-04T00:34:56;49.20;;;22.37;;
24425;SDS011;12611;44.446;26.000;2023-03-04T00:37:24;45.53;;;23.13;;
24425;SDS011;12611;44.446;26.000;2023-03-04T00:39:53;45.00;;;22.77;;
24425;SDS011;12611;44.446;26.000;2023-03-04T00:42:21;47.87;;;21.97;;
24425;SDS011;12611;44.446;26.000;2023-03-04T00:44:49;49.00;;;22.93;;
24425;SDS011;12611;44.446;26.000;2023-03-04T00:47:18;49.03;;;24.60;;
24425;SDS011;12611;44.446;26.000;2023-03-04T00:49:50;52.60;;;23.90;;
24425;SDS011;12611;44.446;26.000;2023-03-04T00:52:18;50.10;;;24.07;;
24425;SDS011;12611;44.446;26.000;2023-03-04T00:54:48;51.47;;;23.73;;
24425;SDS011;12611;44.446;26.000;2023-03-04T00:57:16;52.83;;;23.57;;
24425;SDS011;12611;44.446;26.000;2023-03-04T00:59:45;53.27;;;24.53;;
24425;SDS011;12611;44.446;26.000;2023-03-04T01:02:13;50.43;;;24.03;;
24425;SDS011;12611;44.446;26.000;2023-03-04T01:04:42;48.83;;;25.00;;
24425;SDS011;12611;44.446;26.000;2023-03-04T01:07:12;50.57;;;25.20;;
24425;SDS011;12611;44.446;26.000;2023-03-04T01:09:40;54.47;;;25.27;;
24425;SDS011;12611;44.446;26.000;2023-03-04T01:12:08;53.70;;;24.40;;
24425;SDS011;12611;44.446;26.000;2023-03-04T01:14:37;44.10;;;24.00;;
24425;SDS011;12611;44.446;26.000;2023-03-04T01:17:05;52.80;;;24.67;;
24425;SDS011;12611;44.446;26.000;2023-03-04T01:19:33;53.27;;;24.13;;
24425;SDS011;12611;44.446;26.000;2023-03-04T01:22:02;51.43;;;24.30;;
24425;SDS011;12611;44.446;26.000;2023-03-04T01:24:32;56.87;;;25.27;;
24425;SDS011;12611;44.446;26.000;2023-03-04T01:27:00;49.63;;;23.83;;
24425;SDS011;12611;44.446;26.000;2023-03-04T01:29:29;48.10;;;22.87;;
24425;SDS011;12611;44.446;26.000;2023-03-04T01:31:57;50.67;;;25.60;;
24425;SDS011;12611;44.446;26.000;2023-03-04T01:34:26;55.53;;;25.13;;
24425;SDS011;12611;44.446;26.000;2023-03-04T01:36:54;55.23;;;25.87;;
24425;SDS011;12611;44.446;26.000;2023-03-04T01:39:22;53.10;;;24.20;;
24425;SDS011;12611;44.446;26.000;2023-03-04T01:41:52;49.47;;;23.43;;
24425;SDS011;12611;44.446;26.000;2023-03-04T01:44:21;52.80;;;23.67;;
24425;SDS011;12611;44.446;26.000;2023-03-04T01:46:50;49.17;;;23.30;;
24425;SDS011;12611;44.446;26.000;2023-03-04T01:49:21;50.67;;;23.20;;
24425;SDS011;12611;44.446;26.000;2023-03-04T01:51:52;50.57;;;23.23;;
24425;SDS011;12611;44.446;26.000;2023-03-04T01:54:21;52.27;;;23.50;;
24425;SDS011;12611;44.446;26.000;2023-03-04T01:56:50;49.17;;;23.33;;
24425;SDS011;12611;44.446;26.000;2023-03-04T01:59:22;53.00;;;24.03;;
24425;SDS011;12611;44.446;26.000;2023-03-04T02:01:51;50.93;;;23.70;;
24425;SDS011;12611;44.446;26.000;2023-03-04T02:04:26;44.97;;;22.73;;
24425;SDS011;12611;44.446;26.000;2023-03-04T02:06:55;47.37;;;22.83;;
24425;SDS011;12611;44.446;26.000;2023-03-04T02:09:26;54.77;;;24.93;;
24425;SDS011;12611;44.446;26.000;2023-03-04T02:11:57;51.27;;;23.30;;
24425;SDS011;12611;44.446;26.000;2023-03-04T02:14:26;49.67;;;23.33;;
24425;SDS011;12611;44.446;26.000;2023-03-04T02:16:55;51.00;;;24.53;;
24425;SDS011;12611;44.446;26.000;2023-03-04T02:19:28;46.13;;;23.70;;
24425;SDS011;12611;44.446;26.000;2023-03-04T02:22:07;52.50;;;24.33;;
24425;SDS011;12611;44.446;26.000;2023-03-04T02:24:39;47.67;;;22.50;;
24425;SDS011;12611;44.446;26.000;2023-03-04T02:27:13;45.80;;;22.90;;
24425;SDS011;12611;44.446;26.000;2023-03-04T02:29:42;47.17;;;22.77;;
24425;SDS011;12611;44.446;26.000;2023-03-04T02:32:10;45.67;;;23.23;;
24425;SDS011;12611;44.446;26.000;2023-03-04T02:34:44;47.40;;;22.17;;
24425;SDS011;12611;44.446;26.000;2023-03-04T02:37:14;49.47;;;22.33;;
24425;SDS011;12611;44.446;26.000;2023-03-04T02:39:43;46.43;;;22.77;;
24425;SDS011;12611;44.446;26.000;2023-03-04T02:42:15;50.27;;;24.40;;
24425;SDS011;12611;44.446;26.000;2023-03-04T02:44:45;50.50;;;22.87;;
24425;SDS011;12611;44.446;26.000;2023-03-04T02:47:16;44.77;;;23.33;;
24425;SDS011;12611;44.446;26.000;2023-03-04T02:49:45;53.50;;;23.00;;
24425;SDS011;12611;44.446;26.000;2023-03-04T02:52:16;54.50;;;23.57;;
24425;SDS011;12611;44.446;26.000;2023-03-04T02:54:47;53.20;;;23.97;;
24425;SDS011;12611;44.446;26.000;2023-03-04T02:57:17;47.67;;;22.53;;
24425;SDS011;12611;44.446;26.000;2023-03-04T02:59:46;51.90;;;23.87;;
24425;SDS011;12611;44.446;26.000;2023-03-04T03:02:14;41.93;;;22.80;;
24425;SDS011;12611;44.446;26.000;2023-03-04T03:04:43;47.20;;;23.70;;
24425;SDS011;12611;44.446;26.000;2023-03-04T03:07:11;47.80;;;23.43;;
24425;SDS011;12611;44.446;26.000;2023-03-04T03:09:40;44.80;;;22.57;;
24425;SDS011;12611;44.446;26.000;2023-03-04T03:12:08;45.27;;;22.27;;
24425;SDS011;12611;44.446;26.000;2023-03-04T03:14:38;48.53;;;23.07;;
24425;SDS011;12611;44.446;26.000;2023-03-04T03:17:07;47.43;;;23.67;;
24425;SDS011;12611;44.446;26.000;2023-03-04T03:19:35;55.63;;;26.65;;
24425;SDS011;12611;44.446;26.000;2023-03-04T03:22:04;52.93;;;24.37;;
24425;SDS011;12611;44.446;26.000;2023-03-04T03:24:32;50.13;;;22.10;;
24425;SDS011;12611;44.446;26.000;2023-03-04T03:27:01;50.30;;;23.93;;
24425;SDS011;12611;44.446;26.000;2023-03-04T03:29:29;50.17;;;24.03;;
24425;SDS011;12611;44.446;26.000;2023-03-04T03:31:59;51.23;;;23.10;;
24425;SDS011;12611;44.446;26.000;2023-03-04T03:34:28;47.53;;;22.63;;
24425;SDS011;12611;44.446;26.000;2023-03-04T03:36:56;49.90;;;23.77;;
24425;SDS011;12611;44.446;26.000;2023-03-04T03:39:24;50.53;;;24.33;;
24425;SDS011;12611;44.446;26.000;2023-03-04T03:41:53;53.30;;;23.93;;
24425;SDS011;12611;44.446;26.000;2023-03-04T03:44:21;53.60;;;23.93;;
24425;SDS011;12611;44.446;26.000;2023-03-04T03:46:50;54.13;;;24.50;;
24425;SDS011;12611;44.446;26.000;2023-03-04T03:49:19;53.43;;;24.47;;
24425;SDS011;12611;44.446;26.000;2023-03-04T03:51:48;56.93;;;24.87;;
24425;SDS011;12611;44.446;26.000;2023-03-04T03:54:16;57.60;;;24.37;;
24425;SDS011;12611;44.446;26.000;2023-03-04T03:56:46;53.13;;;25.03;;
24425;SDS011;12611;44.446;26.000;2023-03-04T03:59:14;53.80;;;25.03;;
24425;SDS011;12611;44.446;26.000;2023-03-04T04:01:43;55.43;;;23.70;;
24425;SDS011;12611;44.446;26.000;2023-03-04T04:04:11;54.53;;;23.63;;
24425;SDS011;12611;44.446;26.000;2023-03-04T04:06:41;49.80;;;24.20;;
24425;SDS011;12611;44.446;26.000;2023-03-04T04:09:10;48.43;;;23.80;;
24425;SDS011;12611;44.446;26.000;2023-03-04T04:11:38;55.80;;;24.70;;
24425;SDS011;12611;44.446;26.000;2023-03-04T04:14:07;53.37;;;23.93;;
24425;SDS011;12611;44.446;26.000;2023-03-04T04:16:38;45.70;;;22.90;;
24425;SDS011;12611;44.446;26.000;2023-03-04T04:19:06;46.30;;;22.73;;
24425;SDS011;12611;44.446;26.000;2023-03-04T04:21:34;52.83;;;24.40;;
24425;SDS011;12611;44.446;26.000;2023-03-04T04:24:04;49.03;;;22.73;;
24425;SDS011;12611;44.446;26.000;2023-03-04T04:26:33;53.17;;;23.83;;
24425;SDS011;12611;44.446;26.000;2023-03-04T04:29:01;50.07;;;24.03;;
24425;SDS011;12611;44.446;26.000;2023-03-04T04:31:30;52.67;;;24.00;;
24425;SDS011;12611;44.446;26.000;2023-03-04T04:33:59;47.13;;;22.30;;
24425;SDS011;12611;44.446;26.000;2023-03-04T04:36:27;54.67;;;24.70;;
24425;SDS011;12611;44.446;26.000;2023-03-04T04:38:56;44.83;;;21.47;;
24425;SDS011;12611;44.446;26.000;2023-03-04T04:41:27;45.53;;;21.57;;
24425;SDS011;12611;44.446;26.000;2023-03-04T04:43:58;49.73;;;22.27;;
24425;SDS011;12611;44.446;26.000;2023-03-04T04:46:26;52.17;;;25.07;;
24425;SDS011;12611;44.446;26.000;2023-03-04T04:48:55;49.87;;;23.70;;
24425;SDS011;12611;44.446;26.000;2023-03-04T04:51:23;49.23;;;22.43;;
24425;SDS011;12611;44.446;26.000;2023-03-04T04:53:52;51.80;;;22.67;;
24425;SDS011;12611;44.446;26.000;2023-03-04T04:56:21;52.73;;;23.77;;
24425;SDS011;12611;44.446;26.000;2023-03-04T04:58:53;44.97;;;22.57;;
24425;SDS011;12611;44.446;26.000;2023-03-04T05:01:23;47.87;;;23.53;;
24425;SDS011;12611;44.446;26.000;2023-03-04T05:03:52;54.70;;;24.60;;
24425;SDS011;12611;44.446;26.000;2023-03-04T05:06:22;53.13;;;24.17;;
24425;SDS011;12611;44.446;26.000;2023-03-04T05:08:51;48.13;;;23.20;;
24425;SDS011;12611;44.446;26.000;2023-03-04T05:11:19;49.87;;;23.80;;
24425;SDS011;12611;44.446;26.000;2023-03-04T05:13:48;49.60;;;24.97;;
24425;SDS011;12611;44.446;26.000;2023-03-04T05:16:18;48.50;;;23.33;;
24425;SDS011;12611;44.446;26.000;2023-03-04T05:18:46;50.20;;;23.57;;
24425;SDS011;12611;44.446;26.000;2023-03-04T05:21:15;49.80;;;24.53;;
24425;SDS011;12611;44.446;26.000;2023-03-04T05:23:43;51.23;;;25.67;;
24425;SDS011;12611;44.446;26.000;2023-03-04T05:26:14;50.37;;;22.77;;
24425;SDS011;12611;44.446;26.000;2023-03-04T05:28:44;55.50;;;24.07;;
24425;SDS011;12611;44.446;26.000;2023-03-04T05:31:13;54.50;;;23.47;;
24425;SDS011;12611;44.446;26.000;2023-03-04T05:33:43;47.23;;;23.53;;
24425;SDS011;12611;44.446;26.000;2023-03-04T05:36:11;51.37;;;23.77;;
24425;SDS011;12611;44.446;26.000;2023-03-04T05:38:40;53.40;;;25.50;;
24425;SDS011;12611;44.446;26.000;2023-03-04T05:41:08;52.97;;;24.37;;
24425;SDS011;12611;44.446;26.000;2023-03-04T05:43:37;50.40;;;24.30;;
24425;SDS011;12611;44.446;26.000;2023-03-04T05:46:08;50.67;;;23.93;;
24425;SDS011;12611;44.446;26.000;2023-03-04T05:48:40;52.10;;;23.83;;
24425;SDS011;12611;44.446;26.000;2023-03-04T05:51:10;46.23;;;24.10;;
24425;SDS011;12611;44.446;26.000;2023-03-04T05:53:39;50.20;;;23.70;;
24425;SDS011;12611;44.446;26.000;2023-03-04T05:56:08;48.70;;;23.00;;
24425;SDS011;12611;44.446;26.000;2023-03-04T05:58:37;53.33;;;24.37;;
24425;SDS011;12611;44.446;26.000;2023-03-04T06:01:06;47.40;;;23.77;;
24425;SDS011;12611;44.446;26.000;2023-03-04T06:03:35;54.20;;;24.40;;
24425;SDS011;12611;44.446;26.000;2023-03-04T06:06:05;49.40;;;24.77;;
24425;SDS011;12611;44.446;26.000;2023-03-04T06:08:33;50.03;;;23.63;;
24425;SDS011;12611;44.446;26.000;2023-03-04T06:11:02;52.50;;;25.60;;
24425;SDS011;12611;44.446;26.000;2023-03-04T06:13:31;51.00;;;23.30;;
24425;SDS011;12611;44.446;26.000;2023-03-04T06:16:00;53.13;;;23.97;;
24425;SDS011;12611;44.446;26.000;2023-03-04T06:18:28;53.27;;;23.67;;
24425;SDS011;12611;44.446;26.000;2023-03-04T06:20:57;57.70;;;25.27;;
24425;SDS011;12611;44.446;26.000;2023-03-04T06:23:28;51.40;;;26.03;;
24425;SDS011;12611;44.446;26.000;2023-03-04T06:25:57;53.30;;;25.30;;
24425;SDS011;12611;44.446;26.000;2023-03-04T06:28:27;49.40;;;23.27;;
24425;SDS011;12611;44.446;26.000;2023-03-04T06:30:56;49.93;;;22.97;;
24425;SDS011;12611;44.446;26.000;2023-03-04T06:33:24;51.00;;;23.23;;
24425;SDS011;12611;44.446;26.000;2023-03-04T06:35:53;47.23;;;24.30;;
24425;SDS011;12611;44.446;26.000;2023-03-04T06:38:23;49.93;;;24.17;;
24425;SDS011;12611;44.446;26.000;2023-03-04T06:40:53;49.00;;;25.23;;
24425;SDS011;12611;44.446;26.000;2023-03-04T06:43:23;51.97;;;25.50;;
24425;SDS011;12611;44.446;26.000;2023-03-04T06:45:51;47.60;;;24.63;;
24425;SDS011;12611;44.446;26.000;2023-03-04T06:48:19;49.17;;;24.23;;
24425;SDS011;12611;44.446;26.000;2023-03-04T06:50:48;52.90;;;24.70;;
24425;SDS011;12611;44.446;26.000;2023-03-04T06:53:16;46.40;;;23.10;;
24425;SDS011;12611;44.446;26.000;2023-03-04T06:55:45;44.40;;;22.07;;
24425;SDS011;12611;44.446;26.000;2023-03-04T06:58:16;42.67;;;21.97;;
24425;SDS011;12611;44.446;26.000;2023-03-04T07:00:44;46.47;;;21.60;;
24425;SDS011;12611;44.446;26.000;2023-03-04T07:03:13;45.50;;;23.17;;
24425;SDS011;12611;44.446;26.000;2023-03-04T07:05:41;43.83;;;22.10;;
24425;SDS011;12611;44.446;26.000;2023-03-04T07:08:10;47.77;;;21.67;;
24425;SDS011;12611;44.446;26.000;2023-03-04T07:10:38;45.57;;;23.83;;
24425;SDS011;12611;44.446;26.000;2023-03-04T07:13:07;49.93;;;26.03;;
24425;SDS011;12611;44.446;26.000;2023-03-04T07:15:38;51.60;;;25.23;;
24425;SDS011;12611;44.446;26.000;2023-03-04T07:18:06;46.73;;;22.90;;
24425;SDS011;12611;44.446;26.000;2023-03-04T07:20:35;54.20;;;25.77;;
24425;SDS011;12611;44.446;26.000;2023-03-04T07:23:04;52.03;;;25.97;;
24425;SDS011;12611;44.446;26.000;2023-03-04T07:25:33;51.00;;;25.67;;
24425;SDS011;12611;44.446;26.000;2023-03-04T07:28:01;58.47;;;26.73;;
24425;SDS011;12611;44.446;26.000;2023-03-04T07:30:29;51.30;;;25.63;;
24425;SDS011;12611;44.446;26.000;2023-03-04T07:32:59;56.20;;;27.60;;
24425;SDS011;12611;44.446;26.000;2023-03-04T07:35:28;63.13;;;29.52;;
24425;SDS011;12611;44.446;26.000;2023-03-04T07:37:56;57.73;;;26.87;;
24425;SDS011;12611;44.446;26.000;2023-03-04T07:40:24;56.30;;;27.23;;
24425;SDS011;12611;44.446;26.000;2023-03-04T07:42:53;54.97;;;26.37;;
24425;SDS011;12611;44.446;26.000;2023-03-04T07:45:22;65.97;;;27.07;;
24425;SDS011;12611;44.446;26.000;2023-03-04T07:47:51;55.63;;;25.50;;
24425;SDS011;12611;44.446;26.000;2023-03-04T07:50:21;62.03;;;27.93;;
24425;SDS011;12611;44.446;26.000;2023-03-04T07:52:50;65.30;;;29.30;;
24425;SDS011;12611;44.446;26.000;2023-03-04T07:55:18;59.00;;;27.47;;
24425;SDS011;12611;44.446;26.000;2023-03-04T07:57:47;55.63;;;26.53;;
24425;SDS011;12611;44.446;26.000;2023-03-04T08:00:16;66.13;;;28.30;;
24425;SDS011;12611;44.446;26.000;2023-03-04T08:02:45;60.53;;;28.63;;
24425;SDS011;12611;44.446;26.000;2023-03-04T08:05:13;64.00;;;30.20;;
24425;SDS011;12611;44.446;26.000;2023-03-04T08:07:43;61.27;;;29.20;;
24425;SDS011;12611;44.446;26.000;2023-03-04T08:10:11;61.07;;;30.47;;
24425;SDS011;12611;44.446;26.000;2023-03-04T08:12:40;65.37;;;30.20;;
24425;SDS011;12611;44.446;26.000;2023-03-04T08:15:09;65.73;;;29.07;;
24425;SDS011;12611;44.446;26.000;2023-03-04T08:17:40;61.80;;;30.10;;
24425;SDS011;12611;44.446;26.000;2023-03-04T08:20:09;68.10;;;31.80;;
24425;SDS011;12611;44.446;26.000;2023-03-04T08:22:39;65.97;;;30.07;;
24425;SDS011;12611;44.446;26.000;2023-03-04T08:25:09;61.47;;;29.70;;
24425;SDS011;12611;44.446;26.000;2023-03-04T08:27:37;62.70;;;29.70;;
24425;SDS011;12611;44.446;26.000;2023-03-04T08:30:06;71.10;;;31.30;;
24425;SDS011;12611;44.446;26.000;2023-03-04T08:32:35;64.80;;;30.97;;
24425;SDS011;12611;44.446;26.000;2023-03-04T08:35:04;66.70;;;30.20;;
24425;SDS011;12611;44.446;26.000;2023-03-04T08:37:32;52.80;;;25.10;;
24425;SDS011;12611;44.446;26.000;2023-03-04T08:40:04;53.67;;;25.60;;
24425;SDS011;12611;44.446;26.000;2023-03-04T08:42:35;54.33;;;24.63;;
24425;SDS011;12611;44.446;26.000;2023-03-04T08:45:03;51.60;;;23.13;;
24425;SDS011;12611;44.446;26.000;2023-03-04T08:47:32;55.43;;;23.77;;
24425;SDS011;12611;44.446;26.000;2023-03-04T08:50:00;47.63;;;22.70;;
24425;SDS011;12611;44.446;26.000;2023-03-04T08:52:29;49.77;;;21.97;;
24425;SDS011;12611;44.446;26.000;2023-03-04T08:54:57;50.87;;;22.83;;
24425;SDS011;12611;44.446;26.000;2023-03-04T08:57:26;55.30;;;22.43;;
24425;SDS011;12611;44.446;26.000;2023-03-04T08:59:56;46.03;;;20.67;;
24425;SDS011;12611;44.446;26.000;2023-03-04T09:02:25;41.10;;;20.37;;
24425;SDS011;12611;44.446;26.000;2023-03-04T09:04:53;45.47;;;20.30;;
24425;SDS011;12611;44.446;26.000;2023-03-04T09:07:21;47.60;;;19.67;;
24425;SDS011;12611;44.446;26.000;2023-03-04T09:09:50;45.73;;;19.23;;
24425;SDS011;12611;44.446;26.000;2023-03-04T09:12:19;44.83;;;18.60;;
24425;SDS011;12611;44.446;26.000;2023-03-04T09:14:47;46.47;;;19.80;;
24425;SDS011;12611;44.446;26.000;2023-03-04T09:17:35;42.73;;;19.63;;
24425;SDS011;12611;44.446;26.000;2023-03-04T09:20:04;50.47;;;20.20;;
24425;SDS011;12611;44.446;26.000;2023-03-04T09:22:34;52.83;;;21.63;;
24425;SDS011;12611;44.446;26.000;2023-03-04T09:25:05;42.57;;;18.20;;
24425;SDS011;12611;44.446;26.000;2023-03-04T09:27:38;41.93;;;17.80;;
24425;SDS011;12611;44.446;26.000;2023-03-04T09:30:07;40.93;;;17.53;;
24425;SDS011;12611;44.446;26.000;2023-03-04T09:32:39;34.50;;;15.00;;
24425;SDS011;12611;44.446;26.000;2023-03-04T09:35:08;41.13;;;16.73;;
24425;SDS011;12611;44.446;26.000;2023-03-04T09:37:36;32.87;;;14.27;;
24425;SDS011;12611;44.446;26.000;2023-03-04T09:40:07;28.70;;;13.37;;
24425;SDS011;12611;44.446;26.000;2023-03-04T09:42:43;28.53;;;12.40;;
24425;SDS011;12611;44.446;26.000;2023-03-04T09:45:16;27.83;;;13.77;;
24425;SDS011;12611;44.446;26.000;2023-03-04T09:47:49;26.03;;;12.07;;
24425;SDS011;12611;44.446;26.000;2023-03-04T09:50:19;28.67;;;14.13;;
24425;SDS011;12611;44.446;26.000;2023-03-04T09:52:52;24.87;;;12.70;;
24425;SDS011;12611;44.446;26.000;2023-03-04T09:55:34;29.67;;;15.40;;
24425;SDS011;12611;44.446;26.000;2023-03-04T09:58:08;27.80;;;12.60;;
24425;SDS011;12611;44.446;26.000;2023-03-04T10:00:51;26.67;;;13.17;;
24425;SDS011;12611;44.446;26.000;2023-03-04T10:03:26;24.80;;;12.13;;
24425;SDS011;12611;44.446;26.000;2023-03-04T10:06:00;26.83;;;13.30;;
24425;SDS011;12611;44.446;26.000;2023-03-04T10:08:34;25.10;;;12.67;;
24425;SDS011;12611;44.446;26.000;2023-03-04T10:11:13;24.83;;;12.80;;
24425;SDS011;12611;44.446;26.000;2023-03-04T10:13:47;28.17;;;12.67;;
24425;SDS011;12611;44.446;26.000;2023-03-04T10:16:22;29.83;;;14.10;;
24425;SDS011;12611;44.446;26.000;2023-03-04T10:18:55;25.80;;;12.33;;
24425;SDS011;12611;44.446;26.000;2023-03-04T10:21:29;27.10;;;13.17;;
24425;SDS011;12611;44.446;26.000;2023-03-04T10:23:59;30.37;;;14.20;;
24425;SDS011;12611;44.446;26.000;2023-03-04T10:26:35;23.40;;;12.43;;
24425;SDS011;12611;44.446;26.000;2023-03-04T10:29:04;25.93;;;13.53;;
24425;SDS011;12611;44.446;26.000;2023-03-04T10:31:35;28.87;;;14.30;;
24425;SDS011;12611;44.446;26.000;2023-03-04T10:34:06;32.73;;;16.93;;
24425;SDS011;12611;44.446;26.000;2023-03-04T10:36:45;27.20;;;12.90;;
24425;SDS011;12611;44.446;26.000;2023-03-04T10:39:21;26.17;;;12.60;;
24425;SDS011;12611;44.446;26.000;2023-03-04T10:41:54;27.97;;;12.67;;
24425;SDS011;12611;44.446;26.000;2023-03-04T10:44:25;30.37;;;13.83;;
24425;SDS011;12611;44.446;26.000;2023-03-04T10:46:55;29.17;;;13.33;;
24425;SDS011;12611;44.446;26.000;2023-03-04T10:49:26;31.47;;;13.90;;
24425;SDS011;12611;44.446;26.000;2023-03-04T10:52:00;24.37;;;12.83;;
24425;SDS011;12611;44.446;26.000;2023-03-04T10:54:30;26.27;;;13.83;;
24425;SDS011;12611;44.446;26.000;2023-03-04T10:57:02;26.93;;;13.80;;
24425;SDS011;12611;44.446;26.000;2023-03-04T11:02:20;33.30;;;15.23;;
24425;SDS011;12611;44.446;26.000;2023-03-04T11:04:52;32.67;;;15.57;;
24425;SDS011;12611;44.446;26.000;2023-03-04T11:07:24;33.47;;;15.00;;
24425;SDS011;12611;44.446;26.000;2023-03-04T11:09:53;30.60;;;14.00;;
24425;SDS011;12611;44.446;26.000;2023-03-04T11:12:30;36.27;;;15.97;;
24425;SDS011;12611;44.446;26.000;2023-03-04T11:15:01;29.33;;;14.93;;
24425;SDS011;12611;44.446;26.000;2023-03-04T11:17:38;30.80;;;15.73;;
24425;SDS011;12611;44.446;26.000;2023-03-04T11:20:13;35.07;;;17.53;;
24425;SDS011;12611;44.446;26.000;2023-03-04T11:22:49;36.30;;;16.73;;
24425;SDS011;12611;44.446;26.000;2023-03-04T11:25:22;31.70;;;15.67;;
24425;SDS011;12611;44.446;26.000;2023-03-04T11:27:53;35.20;;;16.70;;
24425;SDS011;12611;44.446;26.000;2023-03-04T11:30:26;34.90;;;17.10;;
24425;SDS011;12611;44.446;26.000;2023-03-04T11:33:13;39.90;;;16.83;;
24425;SDS011;12611;44.446;26.000;2023-03-04T11:36:01;37.90;;;18.53;;
24425;SDS011;12611;44.446;26.000;2023-03-04T11:38:48;36.80;;;17.97;;
24425;SDS011;12611;44.446;26.000;2023-03-04T11:41:20;35.40;;;16.83;;
24425;SDS011;12611;44.446;26.000;2023-03-04T11:43:55;36.17;;;18.60;;
24425;SDS011;12611;44.446;26.000;2023-03-04T11:46:31;39.00;;;17.90;;
24425;SDS011;12611;44.446;26.000;2023-03-04T11:49:34;39.63;;;19.60;;
24425;SDS011;12611;44.446;26.000;2023-03-04T11:52:32;40.97;;;19.20;;
24425;SDS011;12611;44.446;26.000;2023-03-04T11:55:28;46.87;;;20.47;;
24425;SDS011;12611;44.446;26.000;2023-03-04T11:58:08;43.10;;;21.40;;
24425;SDS011;12611;44.446;26.000;2023-03-04T12:00:53;48.23;;;21.43;;
24425;SDS011;12611;44.446;26.000;2023-03-04T12:03:42;45.73;;;21.93;;
24425;SDS011;12611;44.446;26.000;2023-03-04T12:06:34;48.07;;;23.17;;
24425;SDS011;12611;44.446;26.000;2023-03-04T12:09:19;50.23;;;23.60;;
24425;SDS011;12611;44.446;26.000;2023-03-04T12:12:01;40.20;;;21.70;;
24425;SDS011;12611;44.446;26.000;2023-03-04T12:14:44;50.73;;;23.00;;
24425;SDS011;12611;44.446;26.000;2023-03-04T12:17:29;50.30;;;24.40;;
24425;SDS011;12611;44.446;26.000;2023-03-04T12:20:15;55.93;;;24.13;;
24425;SDS011;12611;44.446;26.000;2023-03-04T12:23:10;55.10;;;24.50;;
24425;SDS011;12611;44.446;26.000;2023-03-04T12:25:56;49.53;;;23.93;;
24425;SDS011;12611;44.446;26.000;2023-03-04T12:28:41;51.93;;;23.23;;
24425;SDS011;12611;44.446;26.000;2023-03-04T12:31:29;48.30;;;21.10;;
24425;SDS011;12611;44.446;26.000;2023-03-04T12:37:11;52.33;;;23.50;;
24425;SDS011;12611;44.446;26.000;2023-03-04T12:39:57;46.97;;;23.00;;
24425;SDS011;12611;44.446;26.000;2023-03-04T12:42:36;55.53;;;23.40;;
24425;SDS011;12611;44.446;26.000;2023-03-04T12:45:18;50.03;;;22.70;;
24425;SDS011;12611;44.446;26.000;2023-03-04T12:47:53;60.20;;;25.07;;
24425;SDS011;12611;44.446;26.000;2023-03-04T12:50:30;59.23;;;23.33;;
24425;SDS011;12611;44.446;26.000;2023-03-04T12:53:06;48.47;;;21.40;;
24425;SDS011;12611;44.446;26.000;2023-03-04T12:55:41;43.33;;;20.60;;
24425;SDS011;12611;44.446;26.000;2023-03-04T12:58:14;41.20;;;19.83;;
24425;SDS011;12611;44.446;26.000;2023-03-04T13:00:46;43.90;;;20.70;;
24425;SDS011;12611;44.446;26.000;2023-03-04T13:03:23;41.43;;;20.17;;
24425;SDS011;12611;44.446;26.000;2023-03-04T13:06:04;42.53;;;20.50;;
24425;SDS011;12611;44.446;26.000;2023-03-04T13:08:44;40.67;;;19.97;;
24425;SDS011;12611;44.446;26.000;2023-03-04T13:20:17;39.05;;;20.23;;
24425;SDS011;12611;44.446;26.000;2023-03-04T13:22:52;36.90;;;18.60;;
24425;SDS011;12611;44.446;26.000;2023-03-04T13:25:28;41.22;;;21.52;;
24425;SDS011;12611;44.446;26.000;2023-03-04T13:28:18;40.28;;;19.77;;
24425;SDS011;12611;44.446;26.000;2023-03-04T13:34:02;40.50;;;20.80;;
24425;SDS011;12611;44.446;26.000;2023-03-04T13:39:26;39.85;;;21.67;;
24425;SDS011;12611;44.446;26.000;2023-03-04T13:42:10;34.05;;;18.40;;
24425;SDS011;12611;44.446;26.000;2023-03-04T13:47:58;38.17;;;20.33;;
24425;SDS011;12611;44.446;26.000;2023-03-04T13:50:35;37.88;;;19.70;;
24425;SDS011;12611;44.446;26.000;2023-03-04T13:53:28;35.42;;;19.95;;
24425;SDS011;12611;44.446;26.000;2023-03-04T13:59:09;39.40;;;20.95;;
24425;SDS011;12611;44.446;26.000;2023-03-04T14:01:49;37.40;;;20.65;;
24425;SDS011;12611;44.446;26.000;2023-03-04T14:04:22;38.33;;;20.95;;
24425;SDS011;12611;44.446;26.000;2023-03-04T14:06:56;39.67;;;21.40;;
24425;SDS011;12611;44.446;26.000;2023-03-04T14:09:26;38.40;;;21.90;;
24425;SDS011;12611;44.446;26.000;2023-03-04T14:11:55;37.45;;;21.15;;
24425;SDS011;12611;44.446;26.000;2023-03-04T14:14:27;40.75;;;22.73;;
24425;SDS011;12611;44.446;26.000;2023-03-04T14:16:58;42.08;;;23.40;;
24425;SDS011;12611;44.446;26.000;2023-03-04T14:19:29;40.85;;;23.25;;
24425;SDS011;12611;44.446;26.000;2023-03-04T14:22:01;45.13;;;24.48;;
24425;SDS011;12611;44.446;26.000;2023-03-04T14:24:29;43.35;;;22.40;;
24425;SDS011;12611;44.446;26.000;2023-03-04T14:27:08;46.00;;;22.40;;
24425;SDS011;12611;44.446;26.000;2023-03-04T14:29:40;44.53;;;21.38;;
24425;SDS011;12611;44.446;26.000;2023-03-04T14:32:09;37.20;;;19.88;;
24425;SDS011;12611;44.446;26.000;2023-03-04T14:34:39;38.30;;;19.95;;
24425;SDS011;12611;44.446;26.000;2023-03-04T14:37:17;39.78;;;19.77;;
24425;SDS011;12611;44.446;26.000;2023-03-04T14:39:47;40.88;;;19.15;;
24425;SDS011;12611;44.446;26.000;2023-03-04T14:42:19;36.13;;;19.17;;
24425;SDS011;12611;44.446;26.000;2023-03-04T14:44:53;35.80;;;17.13;;
24425;SDS011;12611;44.446;26.000;2023-03-04T14:47:26;38.35;;;18.10;;
24425;SDS011;12611;44.446;26.000;2023-03-04T14:49:59;39.00;;;19.42;;
24425;SDS011;12611;44.446;26.000;2023-03-04T14:52:34;36.92;;;18.70;;
24425;SDS011;12611;44.446;26.000;2023-03-04T14:55:14;35.30;;;18.37;;
24425;SDS011;12611;44.446;26.000;2023-03-04T14:57:46;36.97;;;18.77;;
24425;SDS011;12611;44.446;26.000;2023-03-04T15:00:23;39.67;;;19.83;;